Time;durP1;ratioP1;P1;durP2;ratioP2;P2;SDS_P1;SDS_P2;PMS_P1;PMS_P2;Temp;Humidity;BMP_temperature;BMP_pressure;BME280_temperature;BME280_humidity;BME280_pressure;Samples;Min_cycle;Max_cycle;Signal;HPM_P1;HPM_P2
2022/05/03 00:00:13;;;;;;;4.32;4.03;;;;;;;;;;4948317;28;20215;-62
2022/05/03 00:02:45;;;;;;;4.93;4.50;;;;;;;;;;4948258;29;20608;-62
2022/05/03 00:05:17;;;;;;;4.25;3.85;;;;;;;;;;4947780;29;20815;-62
2022/05/03 00:07:45;;;;;;;4.20;3.90;;;;;;;;;;4948312;29;20591;-62
2022/05/03 00:10:16;;;;;;;4.28;4.05;;;;;;;;;;4948333;28;20993;-62
2022/05/03 00:12:45;;;;;;;4.35;4.15;;;;;;;;;;4956154;28;20473;-62
2022/05/03 00:15:15;;;;;;;5.90;4.15;;;;;;;;;;4955916;28;20199;-62
2022/05/03 00:17:43;;;;;;;4.50;4.10;;;;;;;;;;4949309;28;20235;-63
2022/05/03 00:20:10;;;;;;;3.80;3.57;;;;;;;;;;4950509;29;20199;-62
2022/05/03 00:22:38;;;;;;;6.00;4.20;;;;;;;;;;4949647;28;20203;-62
2022/05/03 00:25:05;;;;;;;4.40;4.10;;;;;;;;;;4952624;28;20203;-62
2022/05/03 00:27:34;;;;;;;3.28;3.17;;;;;;;;;;4951515;28;20218;-62
2022/05/03 00:30:01;;;;;;;5.13;4.45;;;;;;;;;;4949672;28;20302;-62
2022/05/03 00:32:29;;;;;;;4.70;4.18;;;;;;;;;;4945783;28;20199;-62
2022/05/03 00:34:58;;;;;;;4.23;3.93;;;;;;;;;;4949377;28;20666;-62
2022/05/03 00:37:25;;;;;;;4.55;4.25;;;;;;;;;;4947331;28;20334;-62
2022/05/03 00:39:52;;;;;;;4.17;3.87;;;;;;;;;;4955414;28;20331;-62
2022/05/03 00:42:20;;;;;;;3.92;3.72;;;;;;;;;;4948935;28;20215;-62
2022/05/03 00:44:58;;;;;;;3.97;3.67;;;;;;;;;;4949771;28;20218;-62
2022/05/03 00:47:29;;;;;;;6.82;3.92;;;;;;;;;;4949878;28;20199;-62
2022/05/03 00:50:03;;;;;;;3.95;3.63;;;;;;;;;;4951449;28;20670;-62
2022/05/03 00:52:37;;;;;;;3.70;3.35;;;;;;;;;;4964416;28;20669;-62
2022/05/03 00:55:11;;;;;;;4.27;3.97;;;;;;;;;;4963817;28;20780;-63
2022/05/03 00:57:42;;;;;;;4.28;3.88;;;;;;;;;;4952007;28;20235;-62
2022/05/03 01:00:13;;;;;;;4.57;4.18;;;;;;;;;;4945627;28;20215;-62
2022/05/03 01:02:47;;;;;;;4.80;4.40;;;;;;;;;;4951831;28;20203;-62
2022/05/03 01:05:17;;;;;;;5.32;4.00;;;;;;;;;;4957426;28;20265;-62
2022/05/03 01:07:48;;;;;;;4.07;3.78;;;;;;;;;;4965451;28;20229;-62
2022/05/03 01:10:19;;;;;;;4.50;4.10;;;;;;;;;;4957478;28;20259;-62
2022/05/03 01:12:54;;;;;;;4.38;3.85;;;;;;;;;;4970062;28;20229;-63
2022/05/03 01:15:24;;;;;;;3.95;3.75;;;;;;;;;;4954942;28;20216;-63
2022/05/03 01:17:56;;;;;;;4.35;3.50;;;;;;;;;;4966121;28;20288;-63
2022/05/03 01:20:26;;;;;;;4.85;4.50;;;;;;;;;;4951248;28;20211;-63
2022/05/03 01:23:12;;;;;;;4.78;4.47;;;;;;;;;;4957501;28;20203;-62
2022/05/03 01:25:52;;;;;;;3.85;3.55;;;;;;;;;;4952116;28;20214;-63
2022/05/03 01:28:25;;;;;;;5.22;3.97;;;;;;;;;;4952335;28;20266;-63
2022/05/03 01:30:58;;;;;;;4.20;3.85;;;;;;;;;;4958649;28;20297;-63
2022/05/03 01:33:31;;;;;;;4.15;3.58;;;;;;;;;;4961729;28;20211;-63
2022/05/03 01:35:59;;;;;;;4.45;4.03;;;;;;;;;;4964219;28;20243;-63
2022/05/03 01:38:32;;;;;;;4.25;3.95;;;;;;;;;;4967011;28;20321;-63
2022/05/03 01:41:09;;;;;;;4.32;4.03;;;;;;;;;;4965415;28;20713;-61
2022/05/03 01:43:46;;;;;;;4.72;4.13;;;;;;;;;;4966391;28;20217;-60
2022/05/03 01:46:18;;;;;;;5.00;4.40;;;;;;;;;;4965816;28;20210;-61
2022/05/03 01:51:43;;;;;;;5.22;4.50;;;;;;;;;;4957917;28;20257;-61
2022/05/03 01:54:16;;;;;;;4.07;3.88;;;;;;;;;;4951028;28;20205;-62
2022/05/03 01:56:51;;;;;;;4.50;4.20;;;;;;;;;;4958626;28;20233;-61
2022/05/03 01:59:24;;;;;;;4.20;3.90;;;;;;;;;;4953823;28;20249;-61
2022/05/03 02:01:54;;;;;;;4.50;4.05;;;;;;;;;;4947734;28;20588;-61
2022/05/03 02:04:39;;;;;;;4.07;3.80;;;;;;;;;;4954095;28;20559;-61
2022/05/03 02:07:07;;;;;;;4.23;3.93;;;;;;;;;;4960389;28;20253;-62
2022/05/03 02:09:47;;;;;;;4.20;4.00;;;;;;;;;;4949621;28;20235;-61
2022/05/03 02:12:15;;;;;;;5.35;4.25;;;;;;;;;;4945905;29;20226;-61
2022/05/03 02:14:48;;;;;;;4.70;4.30;;;;;;;;;;4947714;29;20587;-61
2022/05/03 02:17:28;;;;;;;4.93;4.55;;;;;;;;;;4946982;29;20227;-62
2022/05/03 02:20:02;;;;;;;7.40;4.93;;;;;;;;;;4947582;29;20206;-61
2022/05/03 02:22:43;;;;;;;4.05;3.85;;;;;;;;;;4949189;28;20457;-61
2022/05/03 02:25:13;;;;;;;4.43;4.13;;;;;;;;;;4948590;29;20210;-62
2022/05/03 02:27:41;;;;;;;4.55;4.15;;;;;;;;;;4947570;29;20316;-61
2022/05/03 02:30:10;;;;;;;5.40;3.90;;;;;;;;;;4948191;29;20698;-61
2022/05/03 02:32:46;;;;;;;4.93;4.53;;;;;;;;;;4947375;29;20210;-61
2022/05/03 02:35:17;;;;;;;4.75;3.83;;;;;;;;;;4947605;29;20218;-61
2022/05/03 02:37:48;;;;;;;8.47;5.07;;;;;;;;;;4949448;28;20257;-61
2022/05/03 02:40:17;;;;;;;4.00;3.70;;;;;;;;;;4949221;29;21004;-61
2022/05/03 02:42:44;;;;;;;5.47;4.97;;;;;;;;;;4947567;29;20315;-61
2022/05/03 02:45:13;;;;;;;5.67;4.63;;;;;;;;;;4947765;28;20203;-61
2022/05/03 02:47:46;;;;;;;12.13;7.57;;;;;;;;;;4946591;29;20745;-61
2022/05/03 02:50:14;;;;;;;8.10;5.87;;;;;;;;;;4947704;29;20215;-62
2022/05/03 02:52:43;;;;;;;6.80;5.10;;;;;;;;;;4948006;29;20222;-61
2022/05/03 02:55:15;;;;;;;6.85;5.07;;;;;;;;;;4948268;29;20678;-61
2022/05/03 02:57:47;;;;;;;7.43;4.27;;;;;;;;;;4950022;28;20230;-61
2022/05/03 03:03:12;;;;;;;4.70;4.30;;;;;;;;;;4951808;29;20330;-61
2022/05/03 03:05:42;;;;;;;4.80;4.30;;;;;;;;;;4950366;28;20279;-61
2022/05/03 03:08:12;;;;;;;3.80;3.50;;;;;;;;;;4950957;28;20211;-61
2022/05/03 03:10:44;;;;;;;4.07;3.75;;;;;;;;;;4953818;28;20261;-61
2022/05/03 03:13:15;;;;;;;4.67;4.27;;;;;;;;;;4962976;28;20285;-61
2022/05/03 03:15:42;;;;;;;4.50;4.13;;;;;;;;;;4954488;28;20199;-61
2022/05/03 03:18:13;;;;;;;4.73;4.27;;;;;;;;;;4956759;28;20608;-61
2022/05/03 03:20:43;;;;;;;4.23;3.93;;;;;;;;;;4954485;28;20207;-61
2022/05/03 03:23:14;;;;;;;6.80;4.70;;;;;;;;;;4969793;28;20212;-61
2022/05/03 03:25:43;;;;;;;5.40;4.60;;;;;;;;;;4964638;28;20226;-62
2022/05/03 03:28:10;;;;;;;4.30;4.00;;;;;;;;;;4959242;28;20314;-62
2022/05/03 03:30:37;;;;;;;4.60;4.30;;;;;;;;;;4955065;28;20215;-61
2022/05/03 03:33:05;;;;;;;4.67;4.27;;;;;;;;;;4963870;28;20678;-61
2022/05/03 03:35:35;;;;;;;4.73;4.43;;;;;;;;;;4957289;28;20700;-61
2022/05/03 03:38:02;;;;;;;4.37;4.10;;;;;;;;;;4965171;28;20316;-61
2022/05/03 03:40:29;;;;;;;4.07;3.87;;;;;;;;;;4960376;28;20199;-61
2022/05/03 03:42:56;;;;;;;4.53;4.23;;;;;;;;;;4953644;28;20591;-61
2022/05/03 03:45:24;;;;;;;6.00;4.30;;;;;;;;;;4955373;28;20211;-63
2022/05/03 03:47:52;;;;;;;5.00;4.40;;;;;;;;;;4960594;28;20203;-63
2022/05/03 03:50:19;;;;;;;4.73;4.33;;;;;;;;;;4964509;28;20211;-62
2022/05/03 03:52:47;;;;;;;4.90;4.47;;;;;;;;;;4955113;28;20211;-63
2022/05/03 03:55:15;;;;;;;4.77;4.30;;;;;;;;;;4953560;28;20213;-63
2022/05/03 03:57:42;;;;;;;4.70;4.30;;;;;;;;;;4963626;28;20239;-62
2022/05/03 04:00:10;;;;;;;4.53;4.20;;;;;;;;;;4962137;28;20206;-63
2022/05/03 04:02:37;;;;;;;5.25;4.43;;;;;;;;;;4963482;28;20207;-62
2022/05/03 04:05:04;;;;;;;6.93;4.97;;;;;;;;;;4957783;28;20226;-62
2022/05/03 04:07:31;;;;;;;7.57;6.20;;;;;;;;;;4949502;28;20199;-62
2022/05/03 04:10:00;;;;;;;5.23;4.83;;;;;;;;;;4951347;28;20242;-62
2022/05/03 04:12:29;;;;;;;4.47;4.15;;;;;;;;;;4948741;28;20298;-63
2022/05/03 04:14:57;;;;;;;4.60;4.20;;;;;;;;;;4951874;28;20199;-62
2022/05/03 04:17:24;;;;;;;6.03;4.40;;;;;;;;;;4951375;29;20231;-62
2022/05/03 04:19:51;;;;;;;5.17;4.40;;;;;;;;;;4950620;29;20203;-62
2022/05/03 04:22:25;;;;;;;3.87;3.57;;;;;;;;;;4951451;29;20218;-62
2022/05/03 04:24:53;;;;;;;4.77;4.27;;;;;;;;;;4951661;29;20725;-62
2022/05/03 04:27:22;;;;;;;4.40;4.00;;;;;;;;;;4948543;29;20239;-62
2022/05/03 04:29:49;;;;;;;4.97;3.97;;;;;;;;;;4951421;29;20218;-62
2022/05/03 04:32:16;;;;;;;5.13;4.40;;;;;;;;;;4951126;29;20230;-62
2022/05/03 04:34:43;;;;;;;4.25;3.95;;;;;;;;;;4951351;28;20255;-62
2022/05/03 04:37:10;;;;;;;4.20;4.00;;;;;;;;;;4949054;29;20215;-63
2022/05/03 04:39:37;;;;;;;4.53;4.23;;;;;;;;;;4951023;28;20230;-63
2022/05/03 04:42:05;;;;;;;4.80;4.40;;;;;;;;;;4950764;29;20209;-62
2022/05/03 04:44:35;;;;;;;5.43;4.35;;;;;;;;;;4951013;29;20319;-63
2022/05/03 04:47:02;;;;;;;4.30;4.00;;;;;;;;;;4950065;28;20299;-63
2022/05/03 04:49:29;;;;;;;5.13;4.75;;;;;;;;;;4950573;28;20729;-63
2022/05/03 04:51:56;;;;;;;5.00;4.60;;;;;;;;;;4948986;28;20226;-63
2022/05/03 04:54:24;;;;;;;4.80;4.40;;;;;;;;;;4947674;28;20211;-62
2022/05/03 04:56:51;;;;;;;4.70;4.40;;;;;;;;;;4950953;28;20238;-62
2022/05/03 04:59:18;;;;;;;4.68;4.38;;;;;;;;;;4950023;29;20630;-62
2022/05/03 05:01:47;;;;;;;4.25;3.95;;;;;;;;;;4951217;29;20650;-62
2022/05/03 05:04:15;;;;;;;4.83;4.43;;;;;;;;;;4951322;29;20863;-62
2022/05/03 05:06:42;;;;;;;4.70;4.30;;;;;;;;;;4951371;29;20234;-62
2022/05/03 05:09:09;;;;;;;4.93;4.60;;;;;;;;;;4960132;28;20237;-62
2022/05/03 05:11:36;;;;;;;5.37;4.17;;;;;;;;;;4959542;28;20226;-62
2022/05/03 05:14:03;;;;;;;4.60;4.20;;;;;;;;;;4962336;28;20203;-62
2022/05/03 05:16:30;;;;;;;4.40;4.20;;;;;;;;;;4958890;28;20210;-62
2022/05/03 05:18:58;;;;;;;4.80;4.47;;;;;;;;;;4965185;28;20226;-63
2022/05/03 05:21:25;;;;;;;3.95;3.80;;;;;;;;;;4959141;28;20214;-63
2022/05/03 05:23:53;;;;;;;5.00;4.60;;;;;;;;;;4957274;28;20207;-63
2022/05/03 05:26:20;;;;;;;4.97;4.57;;;;;;;;;;4953448;28;20203;-62
2022/05/03 05:28:47;;;;;;;5.07;4.57;;;;;;;;;;4953920;28;20215;-63
2022/05/03 05:31:14;;;;;;;6.00;4.40;;;;;;;;;;4959681;28;20214;-62
2022/05/03 05:33:41;;;;;;;5.23;4.37;;;;;;;;;;4955331;28;20557;-63
2022/05/03 05:36:10;;;;;;;5.23;4.30;;;;;;;;;;4956519;28;20203;-63
2022/05/03 05:38:37;;;;;;;4.53;4.23;;;;;;;;;;4952843;28;20274;-63
2022/05/03 05:41:13;;;;;;;5.23;4.73;;;;;;;;;;4940231;28;20679;-62
2022/05/03 05:43:40;;;;;;;4.40;4.03;;;;;;;;;;4967968;28;20645;-63
2022/05/03 05:46:16;;;;;;;4.77;4.47;;;;;;;;;;4958435;28;20681;-61
2022/05/03 05:48:45;;;;;;;4.93;4.60;;;;;;;;;;4951557;28;20397;-62
2022/05/03 05:51:15;;;;;;;6.07;4.60;;;;;;;;;;4958216;28;20285;-62
2022/05/03 05:53:41;;;;;;;7.80;4.60;;;;;;;;;;4952038;28;20297;-62
2022/05/03 05:56:09;;;;;;;4.63;4.23;;;;;;;;;;4952323;28;20736;-62
2022/05/03 05:58:37;;;;;;;4.50;4.20;;;;;;;;;;4950956;28;20247;-62
2022/05/03 06:01:04;;;;;;;5.03;4.47;;;;;;;;;;4969205;28;20211;-62
2022/05/03 06:03:32;;;;;;;5.18;4.65;;;;;;;;;;4949361;28;20245;-61
2022/05/03 06:06:00;;;;;;;5.32;4.82;;;;;;;;;;4950217;28;20235;-60
2022/05/03 06:08:28;;;;;;;8.13;4.40;;;;;;;;;;4962844;28;20270;-62
2022/05/03 06:10:58;;;;;;;4.78;4.35;;;;;;;;;;4969739;28;20245;-62
2022/05/03 06:13:26;;;;;;;5.95;4.25;;;;;;;;;;4939537;28;20231;-63
2022/05/03 06:15:54;;;;;;;4.97;4.57;;;;;;;;;;4949067;28;20219;-63
2022/05/03 06:18:22;;;;;;;5.22;4.78;;;;;;;;;;4962401;28;20222;-62
2022/05/03 06:20:49;;;;;;;4.05;3.75;;;;;;;;;;4950679;28;20294;-66
2022/05/03 06:23:16;;;;;;;6.25;4.40;;;;;;;;;;4968017;28;20215;-63
2022/05/03 06:25:45;;;;;;;6.53;4.70;;;;;;;;;;4952807;28;20214;-62
2022/05/03 06:28:12;;;;;;;5.35;4.95;;;;;;;;;;4952296;28;20233;-62
2022/05/03 06:30:41;;;;;;;4.43;4.13;;;;;;;;;;4949397;28;20214;-61
2022/05/03 06:33:08;;;;;;;4.28;3.90;;;;;;;;;;4960635;28;20301;-61
2022/05/03 06:35:35;;;;;;;4.50;4.07;;;;;;;;;;4952366;28;20227;-62
2022/05/03 06:38:02;;;;;;;4.25;3.85;;;;;;;;;;4949335;29;20219;-61
2022/05/03 06:40:29;;;;;;;4.63;4.25;;;;;;;;;;4948727;29;20215;-63
2022/05/03 06:42:58;;;;;;;4.60;4.20;;;;;;;;;;4949419;29;20211;-63
2022/05/03 06:45:25;;;;;;;4.65;4.35;;;;;;;;;;4949294;29;20207;-61
2022/05/03 06:47:52;;;;;;;5.22;3.67;;;;;;;;;;4949626;29;20211;-61
2022/05/03 06:50:19;;;;;;;4.53;4.13;;;;;;;;;;4948954;29;20203;-61
2022/05/03 06:52:47;;;;;;;4.68;4.25;;;;;;;;;;4949057;29;20218;-66
2022/05/03 06:55:14;;;;;;;6.33;4.20;;;;;;;;;;4949035;29;20258;-62
2022/05/03 06:57:41;;;;;;;4.55;4.18;;;;;;;;;;4949173;29;20269;-60
2022/05/03 07:00:10;;;;;;;4.32;3.90;;;;;;;;;;4948918;29;20223;-61
2022/05/03 07:02:37;;;;;;;4.82;4.53;;;;;;;;;;4949086;29;20213;-61
2022/05/03 07:05:05;;;;;;;4.90;4.45;;;;;;;;;;4949048;28;20763;-61
2022/05/03 07:07:33;;;;;;;5.25;4.72;;;;;;;;;;4948883;29;20206;-61
2022/05/03 07:10:00;;;;;;;4.30;4.10;;;;;;;;;;4942673;29;20230;-62
2022/05/03 07:12:27;;;;;;;5.40;4.55;;;;;;;;;;4941381;29;20850;-61
2022/05/03 07:14:58;;;;;;;5.38;4.97;;;;;;;;;;4940937;29;20255;-62
2022/05/03 07:22:57;;;;;;;4.25;3.85;;;;;;;;;;4945499;29;20692;-61
2022/05/03 07:25:24;;;;;;;2.92;2.80;;;;;;;;;;4939599;29;20212;-62
2022/05/03 07:27:51;;;;;;;5.57;4.20;;;;;;;;;;4943858;29;20238;-62
2022/05/03 07:30:19;;;;;;;5.50;4.32;;;;;;;;;;4938138;29;20215;-61
2022/05/03 07:32:47;;;;;;;4.75;4.20;;;;;;;;;;4941126;29;20314;-61
2022/05/03 07:35:14;;;;;;;4.57;4.20;;;;;;;;;;4941944;29;20211;-61
2022/05/03 07:37:41;;;;;;;4.80;4.40;;;;;;;;;;4949182;29;20215;-62
2022/05/03 07:40:10;;;;;;;7.00;4.55;;;;;;;;;;4944134;29;20227;-62
2022/05/03 07:42:37;;;;;;;8.02;4.18;;;;;;;;;;4950127;28;20211;-62
2022/05/03 07:45:04;;;;;;;5.03;4.55;;;;;;;;;;4952726;29;20211;-61
2022/05/03 07:47:31;;;;;;;5.20;4.70;;;;;;;;;;4953063;29;20219;-61
2022/05/03 07:49:59;;;;;;;4.45;4.03;;;;;;;;;;4952556;29;20270;-61
2022/05/03 07:52:27;;;;;;;6.63;5.15;;;;;;;;;;4951864;29;20219;-61
2022/05/03 07:54:57;;;;;;;4.53;4.10;;;;;;;;;;4950786;29;20797;-62
2022/05/03 07:57:25;;;;;;;7.25;4.38;;;;;;;;;;4949522;29;20216;-60
2022/05/03 07:59:54;;;;;;;5.13;4.70;;;;;;;;;;4944583;29;20231;-59
2022/05/03 08:02:21;;;;;;;2.10;2.03;;;;;;;;;;4948710;29;20309;-62
2022/05/03 08:04:49;;;;;;;4.80;4.03;;;;;;;;;;4939725;29;20212;-59
2022/05/03 08:07:18;;;;;;;3.80;3.60;;;;;;;;;;4944708;29;20220;-62
2022/05/03 08:09:45;;;;;;;4.18;3.92;;;;;;;;;;4952584;29;20342;-62
2022/05/03 08:12:12;;;;;;;4.68;4.22;;;;;;;;;;4952198;29;20215;-62
2022/05/03 08:14:40;;;;;;;5.70;4.20;;;;;;;;;;4944444;29;20216;-61
2022/05/03 08:17:07;;;;;;;4.90;4.45;;;;;;;;;;4942537;29;20732;-60
2022/05/03 08:19:34;;;;;;;4.65;4.30;;;;;;;;;;4951566;29;20278;-61
2022/05/03 08:22:01;;;;;;;5.55;4.47;;;;;;;;;;4951679;29;20211;-61
2022/05/03 08:24:30;;;;;;;5.97;4.60;;;;;;;;;;4951885;29;20211;-62
2022/05/03 08:26:57;;;;;;;4.70;4.25;;;;;;;;;;4948823;29;20818;-62
2022/05/03 08:29:27;;;;;;;4.53;4.18;;;;;;;;;;4952318;29;20302;-62
2022/05/03 08:31:54;;;;;;;5.00;4.10;;;;;;;;;;4949922;29;20218;-62
2022/05/03 08:34:21;;;;;;;4.20;3.90;;;;;;;;;;4938812;29;20207;-62
2022/05/03 08:42:16;;;;;;;4.25;3.78;;;;;;;;;;4938914;29;20759;-61
2022/05/03 08:44:43;;;;;;;4.30;3.60;;;;;;;;;;4951966;29;20500;-60
2022/05/03 08:47:11;;;;;;;4.13;3.90;;;;;;;;;;4951449;29;20211;-62
2022/05/03 08:49:42;;;;;;;4.47;4.18;;;;;;;;;;4952037;29;20270;-61
2022/05/03 08:52:10;;;;;;;4.32;4.00;;;;;;;;;;4951065;29;20297;-62
2022/05/03 08:54:39;;;;;;;4.00;3.70;;;;;;;;;;4950965;28;20215;-62
2022/05/03 08:57:07;;;;;;;4.18;3.90;;;;;;;;;;4951380;29;20254;-61
2022/05/03 08:59:35;;;;;;;4.43;3.88;;;;;;;;;;4948444;29;20337;-62
2022/05/03 09:02:02;;;;;;;6.97;4.25;;;;;;;;;;4951188;29;20207;-62
2022/05/03 09:04:29;;;;;;;4.47;4.15;;;;;;;;;;4951235;28;20217;-62
2022/05/03 09:06:56;;;;;;;4.25;3.95;;;;;;;;;;4950517;28;20242;-63
2022/05/03 09:09:24;;;;;;;4.15;3.85;;;;;;;;;;4951610;29;20235;-62
2022/05/03 09:11:53;;;;;;;4.40;3.83;;;;;;;;;;4936717;29;20207;-62
2022/05/03 09:14:35;;;;;;;4.47;4.18;;;;;;;;;;4950756;28;20210;-64
2022/05/03 09:17:03;;;;;;;4.30;3.95;;;;;;;;;;4942567;29;20822;-60
2022/05/03 09:19:30;;;;;;;4.55;4.25;;;;;;;;;;4951361;28;20266;-60
2022/05/03 09:24:58;;;;;;;4.03;3.83;;;;;;;;;;4950737;29;20218;-61
2022/05/03 09:27:27;;;;;;;4.18;3.88;;;;;;;;;;4938702;29;20231;-61
2022/05/03 09:30:01;;;;;;;4.38;4.13;;;;;;;;;;4950739;29;20573;-61
2022/05/03 09:32:34;;;;;;;4.35;4.05;;;;;;;;;;4950775;29;21032;-62
2022/05/03 09:35:01;;;;;;;4.40;4.10;;;;;;;;;;4950312;28;20299;-61
2022/05/03 09:37:38;;;;;;;4.38;4.07;;;;;;;;;;4950747;29;20254;-62
2022/05/03 09:40:07;;;;;;;4.22;3.70;;;;;;;;;;4950527;29;20222;-63
2022/05/03 09:42:36;;;;;;;5.25;4.05;;;;;;;;;;4950110;29;20207;-63
2022/05/03 09:45:05;;;;;;;4.10;3.80;;;;;;;;;;4949693;29;20298;-60
2022/05/03 09:47:33;;;;;;;5.40;4.90;;;;;;;;;;4948480;29;20674;-60
2022/05/03 09:50:00;;;;;;;4.55;4.15;;;;;;;;;;4950057;29;20203;-61
2022/05/03 09:52:28;;;;;;;3.80;3.60;;;;;;;;;;4949422;29;20784;-60
2022/05/03 09:54:59;;;;;;;4.45;4.13;;;;;;;;;;4950557;29;20218;-60
2022/05/03 09:57:28;;;;;;;5.63;4.28;;;;;;;;;;4950101;29;20315;-60
2022/05/03 09:59:57;;;;;;;4.20;3.90;;;;;;;;;;4950209;29;20235;-60
2022/05/03 10:02:25;;;;;;;3.92;3.72;;;;;;;;;;4950239;29;20661;-60
2022/05/03 10:04:53;;;;;;;3.05;2.85;;;;;;;;;;4949727;28;20603;-61
2022/05/03 10:07:21;;;;;;;3.90;3.63;;;;;;;;;;4953402;28;20210;-60
2022/05/03 10:09:48;;;;;;;3.95;3.63;;;;;;;;;;4949553;29;20334;-60
2022/05/03 10:12:16;;;;;;;3.75;3.58;;;;;;;;;;4950026;29;20313;-60
2022/05/03 10:14:43;;;;;;;4.03;3.63;;;;;;;;;;4950279;29;20756;-60
2022/05/03 10:22:44;;;;;;;3.92;3.53;;;;;;;;;;4948080;29;20206;-58
2022/05/03 10:25:11;;;;;;;4.13;3.90;;;;;;;;;;4944180;29;20203;-61
2022/05/03 10:27:53;;;;;;;3.40;3.10;;;;;;;;;;4950367;28;20234;-59
2022/05/03 10:30:22;;;;;;;4.07;3.85;;;;;;;;;;4941296;29;20445;-60
2022/05/03 10:33:04;;;;;;;4.15;3.80;;;;;;;;;;4932251;29;20208;-60
2022/05/03 10:35:36;;;;;;;3.83;3.63;;;;;;;;;;4943601;29;20214;-60
2022/05/03 10:38:05;;;;;;;3.90;3.60;;;;;;;;;;4943858;29;20753;-60
2022/05/03 10:40:34;;;;;;;3.20;3.03;;;;;;;;;;4946061;29;20354;-60
2022/05/03 10:43:09;;;;;;;3.58;3.38;;;;;;;;;;4942954;29;20215;-60
2022/05/03 10:45:49;;;;;;;3.30;3.17;;;;;;;;;;4943746;29;20218;-61
2022/05/03 10:48:26;;;;;;;3.60;3.40;;;;;;;;;;4946361;29;20303;-62
2022/05/03 10:50:55;;;;;;;4.18;3.10;;;;;;;;;;4932878;29;20207;-62
2022/05/03 10:53:29;;;;;;;3.70;3.50;;;;;;;;;;4937055;29;20266;-60
2022/05/03 10:56:20;;;;;;;4.28;3.83;;;;;;;;;;4947633;29;20215;-61
2022/05/03 10:58:48;;;;;;;3.92;3.33;;;;;;;;;;4941075;29;20697;-60
2022/05/03 11:01:18;;;;;;;3.33;3.22;;;;;;;;;;4950040;29;20227;-60
2022/05/03 11:04:00;;;;;;;3.90;3.65;;;;;;;;;;4940170;29;20254;-61
2022/05/03 11:06:40;;;;;;;4.13;3.83;;;;;;;;;;4945446;29;20863;-61
2022/05/03 11:09:09;;;;;;;4.20;3.92;;;;;;;;;;4949900;29;20237;-61
2022/05/03 11:11:56;;;;;;;4.50;4.20;;;;;;;;;;4950309;29;20231;-59
2022/05/03 11:14:42;;;;;;;4.63;4.07;;;;;;;;;;4949162;29;20229;-62
2022/05/03 11:17:10;;;;;;;3.40;3.30;;;;;;;;;;4942953;28;20923;-59
2022/05/03 11:19:38;;;;;;;3.55;3.20;;;;;;;;;;4947486;28;20241;-58
2022/05/03 11:22:11;;;;;;;3.20;3.05;;;;;;;;;;4945620;28;20921;-59
2022/05/03 11:24:41;;;;;;;3.92;3.70;;;;;;;;;;4952670;28;20222;-61
2022/05/03 11:27:09;;;;;;;3.70;3.40;;;;;;;;;;4953402;29;20214;-61
2022/05/03 11:29:37;;;;;;;3.08;2.95;;;;;;;;;;4953982;29;20276;-61
2022/05/03 11:32:06;;;;;;;2.78;2.67;;;;;;;;;;4951929;28;20678;-61
2022/05/03 11:34:33;;;;;;;3.08;2.97;;;;;;;;;;4953446;28;20203;-61
2022/05/03 11:37:01;;;;;;;3.53;3.22;;;;;;;;;;4951945;28;20210;-59
2022/05/03 11:39:30;;;;;;;3.05;2.83;;;;;;;;;;4953290;29;20245;-61
2022/05/03 11:41:57;;;;;;;2.35;2.25;;;;;;;;;;4952553;29;20781;-62
2022/05/03 11:44:27;;;;;;;3.80;3.58;;;;;;;;;;4952631;29;20219;-61
2022/05/03 11:46:54;;;;;;;3.22;3.10;;;;;;;;;;4953406;28;20302;-61
2022/05/03 11:49:22;;;;;;;2.92;2.83;;;;;;;;;;4953306;28;20666;-60
2022/05/03 11:57:22;;;;;;;4.07;3.80;;;;;;;;;;4953556;29;20285;-60
2022/05/03 11:59:50;;;;;;;4.03;3.28;;;;;;;;;;4952861;29;20227;-61
2022/05/03 12:02:19;;;;;;;3.47;3.25;;;;;;;;;;4953160;28;20219;-60
2022/05/03 12:05:03;;;;;;;5.50;3.83;;;;;;;;;;4952833;28;20211;-61
2022/05/03 12:07:31;;;;;;;3.65;3.45;;;;;;;;;;4951200;29;20302;-61
2022/05/03 12:09:59;;;;;;;4.10;3.70;;;;;;;;;;4949585;28;20262;-61
2022/05/03 12:15:17;;;;;;;3.88;3.30;;;;;;;;;;4952492;28;20222;-61
2022/05/03 12:17:55;;;;;;;4.38;4.03;;;;;;;;;;4950220;29;20225;-61
2022/05/03 12:20:22;;;;;;;3.33;3.08;;;;;;;;;;4950788;29;20268;-60
2022/05/03 12:23:08;;;;;;;3.47;3.17;;;;;;;;;;4952532;29;20215;-61
2022/05/03 12:25:36;;;;;;;2.97;2.88;;;;;;;;;;4951450;29;20298;-60
2022/05/03 12:28:04;;;;;;;3.75;2.47;;;;;;;;;;4952493;28;20234;-61
2022/05/03 12:30:32;;;;;;;2.80;2.70;;;;;;;;;;4950993;28;20211;-61
2022/05/03 12:33:02;;;;;;;3.13;2.97;;;;;;;;;;4952156;28;20843;-60
2022/05/03 12:35:32;;;;;;;2.75;2.65;;;;;;;;;;4952354;29;20235;-60
2022/05/03 12:38:00;;;;;;;3.55;3.35;;;;;;;;;;4952438;28;20223;-61
2022/05/03 12:40:28;;;;;;;3.33;3.13;;;;;;;;;;4952030;29;20732;-60
2022/05/03 12:42:56;;;;;;;3.08;2.90;;;;;;;;;;4952831;29;20219;-61
2022/05/03 12:45:33;;;;;;;3.60;3.40;;;;;;;;;;4952227;29;20202;-60
2022/05/03 12:48:00;;;;;;;3.38;3.17;;;;;;;;;;4952573;29;20211;-62
2022/05/03 12:50:27;;;;;;;4.00;3.65;;;;;;;;;;4952064;29;20199;-61
2022/05/03 12:52:54;;;;;;;4.32;3.78;;;;;;;;;;4952109;29;20218;-62
2022/05/03 12:55:21;;;;;;;4.00;3.70;;;;;;;;;;4952041;28;20215;-62
2022/05/03 13:00:36;;;;;;;3.00;2.80;;;;;;;;;;4951282;29;20658;-63
2022/05/03 13:03:03;;;;;;;3.20;3.10;;;;;;;;;;4948954;29;20199;-64
2022/05/03 13:05:30;;;;;;;3.85;3.58;;;;;;;;;;4951422;28;20227;-63
2022/05/03 13:07:57;;;;;;;3.05;2.63;;;;;;;;;;4951528;28;20211;-65
2022/05/03 13:10:24;;;;;;;3.70;3.50;;;;;;;;;;4951176;28;20717;-64
2022/05/03 13:12:52;;;;;;;3.38;3.08;;;;;;;;;;4950534;29;20698;-64
2022/05/03 13:15:22;;;;;;;3.35;3.25;;;;;;;;;;4950278;29;20741;-65
2022/05/03 13:17:50;;;;;;;3.40;3.20;;;;;;;;;;4951889;29;20211;-65
2022/05/03 13:20:20;;;;;;;4.03;3.47;;;;;;;;;;4950586;28;20223;-64
2022/05/03 13:22:47;;;;;;;3.05;2.92;;;;;;;;;;4951224;29;20229;-64
2022/05/03 13:25:14;;;;;;;3.83;3.63;;;;;;;;;;4951648;28;20207;-64
2022/05/03 13:27:41;;;;;;;3.30;3.10;;;;;;;;;;4943466;28;20215;-64
2022/05/03 13:30:09;;;;;;;3.80;3.45;;;;;;;;;;4947925;28;20203;-64
2022/05/03 13:32:36;;;;;;;3.78;3.47;;;;;;;;;;4947127;28;20226;-64
2022/05/03 13:35:05;;;;;;;5.38;3.40;;;;;;;;;;4947574;28;20222;-64
2022/05/03 13:40:34;;;;;;;2.97;2.88;;;;;;;;;;4946097;28;20705;-64
2022/05/03 13:43:02;;;;;;;4.15;3.85;;;;;;;;;;4946745;29;20226;-65
2022/05/03 13:45:29;;;;;;;4.28;3.67;;;;;;;;;;4947605;29;20221;-65
2022/05/03 13:47:56;;;;;;;3.85;3.60;;;;;;;;;;4947393;28;20708;-65
2022/05/03 13:50:25;;;;;;;3.78;3.42;;;;;;;;;;4946514;29;20207;-65
2022/05/03 13:52:52;;;;;;;3.53;3.33;;;;;;;;;;4947535;29;20207;-65
2022/05/03 13:55:19;;;;;;;3.90;3.60;;;;;;;;;;4946806;29;20218;-62
2022/05/03 13:57:46;;;;;;;3.72;3.42;;;;;;;;;;4947288;28;20623;-61
2022/05/03 14:00:13;;;;;;;3.60;3.50;;;;;;;;;;4945765;28;20294;-62
2022/05/03 14:02:42;;;;;;;4.90;3.97;;;;;;;;;;4945987;28;20218;-62
2022/05/03 14:05:10;;;;;;;4.50;4.15;;;;;;;;;;4942646;28;20282;-62
2022/05/03 14:07:45;;;;;;;4.00;3.65;;;;;;;;;;4946376;29;20211;-62
2022/05/03 14:10:12;;;;;;;3.95;3.55;;;;;;;;;;4945955;29;20241;-64
2022/05/03 14:12:39;;;;;;;3.10;3.00;;;;;;;;;;4945319;28;20674;-64
2022/05/03 14:15:07;;;;;;;2.92;2.72;;;;;;;;;;4940343;29;20214;-64
2022/05/03 14:17:34;;;;;;;3.47;3.28;;;;;;;;;;4946123;28;20701;-64
2022/05/03 14:20:01;;;;;;;5.22;3.63;;;;;;;;;;4944962;28;20258;-64
2022/05/03 14:22:28;;;;;;;3.08;2.55;;;;;;;;;;4945638;29;20559;-63
2022/05/03 14:24:59;;;;;;;3.53;3.22;;;;;;;;;;4945867;29;20700;-63
2022/05/03 14:27:28;;;;;;;4.97;3.47;;;;;;;;;;4946034;28;20222;-64
2022/05/03 14:29:55;;;;;;;3.42;3.22;;;;;;;;;;4945603;28;20358;-63
2022/05/03 14:32:22;;;;;;;3.03;2.92;;;;;;;;;;4945711;28;20219;-63
2022/05/03 14:34:50;;;;;;;3.50;3.20;;;;;;;;;;4945802;29;20219;-63
2022/05/03 14:37:17;;;;;;;3.20;3.10;;;;;;;;;;4945678;29;20266;-63
2022/05/03 14:39:44;;;;;;;3.03;2.75;;;;;;;;;;4945833;28;20211;-64
2022/05/03 14:42:13;;;;;;;3.40;3.17;;;;;;;;;;4945720;29;20558;-64
2022/05/03 14:44:40;;;;;;;3.17;3.08;;;;;;;;;;4945561;29;20270;-65
2022/05/03 14:47:08;;;;;;;3.45;3.15;;;;;;;;;;4946012;29;20211;-64
2022/05/03 14:49:36;;;;;;;3.42;3.22;;;;;;;;;;4945504;28;20302;-64
2022/05/03 14:52:05;;;;;;;3.40;3.20;;;;;;;;;;4944175;28;20211;-64
2022/05/03 14:54:33;;;;;;;3.45;3.35;;;;;;;;;;4945461;29;20218;-63
2022/05/03 15:05:17;;;;;;;3.65;3.40;;;;;;;;;;4943276;29;20248;-62
2022/05/03 15:07:45;;;;;;;3.30;3.15;;;;;;;;;;4937501;29;20203;-61
2022/05/03 15:10:12;;;;;;;3.63;3.40;;;;;;;;;;4938780;29;20343;-61
2022/05/03 15:12:39;;;;;;;3.72;3.47;;;;;;;;;;4944834;28;20217;-61
2022/05/03 15:15:22;;;;;;;3.10;2.92;;;;;;;;;;4946275;28;20222;-61
2022/05/03 15:17:51;;;;;;;3.55;3.35;;;;;;;;;;4943080;28;20222;-61
2022/05/03 15:20:19;;;;;;;2.40;2.30;;;;;;;;;;4944872;28;20222;-62
2022/05/03 15:25:31;;;;;;;3.58;3.35;;;;;;;;;;4942272;29;20294;-60
2022/05/03 15:27:58;;;;;;;4.85;3.47;;;;;;;;;;4945653;28;20219;-60
2022/05/03 15:30:26;;;;;;;3.90;3.70;;;;;;;;;;4941793;28;20207;-60
2022/05/03 15:32:54;;;;;;;3.38;3.05;;;;;;;;;;4945425;28;20298;-61
2022/05/03 15:35:21;;;;;;;3.50;3.40;;;;;;;;;;4944963;28;20218;-63
2022/05/03 15:37:49;;;;;;;2.80;2.70;;;;;;;;;;4942833;28;20214;-62
2022/05/03 15:40:16;;;;;;;3.60;3.45;;;;;;;;;;4946562;29;20225;-62
2022/05/03 15:42:43;;;;;;;3.30;3.20;;;;;;;;;;4945680;29;20227;-62
2022/05/03 15:45:11;;;;;;;3.50;3.25;;;;;;;;;;4946042;28;20262;-62